createdAt,value
2018-09-04T00:01:22.592Z,12.00
2018-09-04T00:03:51.460Z,12.00
2018-09-04T00:06:20.274Z,12.17
2018-09-04T00:08:49.158Z,10.93
2018-09-04T00:11:18.012Z,13.43
2018-09-04T00:13:46.883Z,12.73
2018-09-04T00:16:15.741Z,14.87
2018-09-04T00:18:44.544Z,12.33
2018-09-04T00:21:13.452Z,13.33
2018-09-04T00:23:42.244Z,12.47
2018-09-04T00:26:11.130Z,11.50
2018-09-04T00:28:39.939Z,13.10
2018-09-04T00:31:09.095Z,12.73
2018-09-04T00:33:37.891Z,12.67
2018-09-04T00:36:07.422Z,11.67
2018-09-04T00:38:36.227Z,13.53
2018-09-04T00:41:05.129Z,11.37
2018-09-04T00:43:33.922Z,11.43
2018-09-04T00:46:02.829Z,11.70
2018-09-04T00:48:31.611Z,10.70
2018-09-04T00:51:00.575Z,10.07
2018-09-04T00:53:29.392Z,8.97
2018-09-04T00:55:58.618Z,9.97
2018-09-04T00:58:27.463Z,8.33
2018-09-04T01:00:56.267Z,9.10
2018-09-04T01:03:25.147Z,9.67
2018-09-04T01:05:53.936Z,12.13
2018-09-04T01:08:23.135Z,8.83
2018-09-04T01:10:51.916Z,11.03
2018-09-04T01:13:20.735Z,10.33
2018-09-04T01:15:49.583Z,12.43
2018-09-04T01:18:18.408Z,11.23
2018-09-04T01:20:47.224Z,8.33
2018-09-04T01:23:16.059Z,10.23
2018-09-04T01:25:44.863Z,9.03
2018-09-04T01:28:13.865Z,10.20
2018-09-04T01:30:42.900Z,10.53
2018-09-04T01:33:11.736Z,9.90
2018-09-04T01:35:40.671Z,9.87
2018-09-04T01:38:09.519Z,10.20
2018-09-04T01:40:38.367Z,10.63
2018-09-04T01:43:07.198Z,9.30
2018-09-04T01:45:36.904Z,9.63
2018-09-04T01:48:05.868Z,12.70
2018-09-04T01:50:34.719Z,10.33
2018-09-04T01:53:03.716Z,11.20
2018-09-04T01:55:32.545Z,11.27
2018-09-04T01:58:01.328Z,10.20
2018-09-04T02:00:30.176Z,10.03
2018-09-04T02:02:58.978Z,8.80
2018-09-04T02:05:28.156Z,10.43
2018-09-04T02:07:56.930Z,10.63
2018-09-04T02:10:25.768Z,9.47
2018-09-04T02:12:54.842Z,11.97
2018-09-04T02:15:23.845Z,10.73
2018-09-04T02:17:52.684Z,9.00
2018-09-04T02:20:21.522Z,8.50
2018-09-04T02:22:50.347Z,10.13
2018-09-04T02:25:19.185Z,11.13
2018-09-04T02:27:48.246Z,11.17
2018-09-04T02:30:17.235Z,10.20
2018-09-04T02:32:46.017Z,10.00
2018-09-04T02:35:14.859Z,11.33
2018-09-04T02:37:43.644Z,12.37
2018-09-04T02:40:12.503Z,9.73
2018-09-04T02:42:41.337Z,9.27
2018-09-04T02:45:10.177Z,9.60
2018-09-04T02:47:39.015Z,9.83
2018-09-04T02:50:07.771Z,13.67
2018-09-04T02:52:36.622Z,11.20
2018-09-04T02:55:05.559Z,10.97
2018-09-04T02:57:34.379Z,12.67
2018-09-04T03:00:03.359Z,11.90
2018-09-04T03:02:32.178Z,9.50
2018-09-04T03:05:01.244Z,11.43
2018-09-04T03:07:30.151Z,9.40
2018-09-04T03:09:58.972Z,10.50
2018-09-04T03:12:27.792Z,13.80
2018-09-04T03:14:56.594Z,8.83
2018-09-04T03:17:25.427Z,13.87
2018-09-04T03:19:54.282Z,11.93
2018-09-04T03:22:23.109Z,9.50
2018-09-04T03:24:51.896Z,11.30
2018-09-04T03:27:20.714Z,10.30
2018-09-04T03:29:49.774Z,11.87
2018-09-04T03:32:18.660Z,9.43
2018-09-04T03:34:47.467Z,10.63
2018-09-04T03:37:16.427Z,10.37
2018-09-04T03:39:45.266Z,11.53
2018-09-04T03:42:14.159Z,12.00
2018-09-04T03:44:43.079Z,10.83
2018-09-04T03:47:11.895Z,9.60
2018-09-04T03:49:40.798Z,11.37
2018-09-04T03:52:09.601Z,10.70
2018-09-04T03:54:38.767Z,13.33
2018-09-04T03:57:07.635Z,11.53
2018-09-04T03:59:36.482Z,10.83
2018-09-04T04:02:05.611Z,13.90
2018-09-04T04:04:34.459Z,10.77
2018-09-04T04:07:03.314Z,11.33
2018-09-04T04:09:32.204Z,10.97
2018-09-04T04:12:01.350Z,11.23
2018-09-04T04:14:30.133Z,12.20
2018-09-04T04:16:59.085Z,12.87
2018-09-04T04:19:27.920Z,15.60
2018-09-04T04:21:56.739Z,12.30
2018-09-04T04:24:25.566Z,15.63
2018-09-04T04:26:54.330Z,16.47
2018-09-04T04:29:23.227Z,12.00
2018-09-04T04:31:52.020Z,15.73
2018-09-04T04:34:20.887Z,13.07
2018-09-04T04:36:49.687Z,14.47
2018-09-04T04:39:18.504Z,11.70
2018-09-04T04:41:47.272Z,12.07
2018-09-04T04:44:16.032Z,13.10
2018-09-04T04:46:45.316Z,12.30
2018-09-04T04:49:14.104Z,11.23
2018-09-04T04:51:42.919Z,11.83
2018-09-04T04:54:11.703Z,11.50
2018-09-04T04:56:40.531Z,12.80
2018-09-04T04:59:09.530Z,14.90
2018-09-04T05:01:38.476Z,15.83
2018-09-04T05:04:07.637Z,16.50
2018-09-04T05:06:36.436Z,13.20
2018-09-04T05:09:08.052Z,15.67
2018-09-04T05:11:37.034Z,12.17
2018-09-04T05:14:05.943Z,14.40
2018-09-04T05:16:34.795Z,13.10
2018-09-04T05:19:03.599Z,13.97
2018-09-04T05:21:32.413Z,14.77
2018-09-04T05:24:01.265Z,14.80
2018-09-04T05:26:30.125Z,13.53
2018-09-04T05:28:58.912Z,15.33
2018-09-04T05:31:28.378Z,11.27
2018-09-04T05:33:57.293Z,14.80
2018-09-04T05:36:26.213Z,12.83
2018-09-04T05:38:54.976Z,12.50
2018-09-04T05:41:23.916Z,12.60
2018-09-04T05:43:57.825Z,14.53
2018-09-04T05:46:32.596Z,11.37
2018-09-04T05:49:01.854Z,12.80
2018-09-04T05:51:30.677Z,13.63
2018-09-04T05:53:59.935Z,13.73
2018-09-04T05:56:28.841Z,16.57
2018-09-04T05:58:57.665Z,14.13
2018-09-04T06:01:26.612Z,13.90
2018-09-04T06:03:55.452Z,13.87
2018-09-04T06:06:24.215Z,13.37
2018-09-04T06:08:53.120Z,15.13
2018-09-04T06:11:21.920Z,14.97
2018-09-04T06:13:50.885Z,14.80
2018-09-04T06:16:19.659Z,13.97
2018-09-04T06:18:48.495Z,16.03
2018-09-04T06:21:17.292Z,13.27
2018-09-04T06:23:46.149Z,16.73
2018-09-04T06:26:14.973Z,18.20
2018-09-04T06:28:43.807Z,21.57
2018-09-04T06:31:12.609Z,19.10
2018-09-04T06:33:41.767Z,23.33
2018-09-04T06:36:10.590Z,25.00
2018-09-04T06:38:39.580Z,20.40
2018-09-04T06:41:08.443Z,24.07
2018-09-04T06:43:37.238Z,28.33
2018-09-04T06:46:06.200Z,25.47
2018-09-04T06:48:35.480Z,29.13
2018-09-04T06:51:06.612Z,30.33
2018-09-04T06:53:35.538Z,31.77
2018-09-04T06:56:04.549Z,27.53
2018-09-04T06:58:33.347Z,34.73
2018-09-04T07:01:02.233Z,33.37
2018-09-04T07:03:31.093Z,30.23
2018-09-04T07:05:59.977Z,35.37
2018-09-04T07:08:28.740Z,31.27
2018-09-04T07:10:57.564Z,35.53
2018-09-04T07:13:26.340Z,34.07
2018-09-04T07:15:55.229Z,35.13
2018-09-04T07:18:24.016Z,35.37
2018-09-04T07:20:53.248Z,35.53
2018-09-04T07:23:22.149Z,33.33
2018-09-04T07:25:51.007Z,34.23
2018-09-04T07:28:19.846Z,37.07
2018-09-04T07:30:48.735Z,36.93
2018-09-04T07:33:17.609Z,40.00
2018-09-04T07:35:46.478Z,36.43
2018-09-04T07:38:15.269Z,33.37
2018-09-04T07:40:44.190Z,36.07
2018-09-04T07:43:12.980Z,35.83
2018-09-04T07:45:41.799Z,35.63
2018-09-04T07:48:10.633Z,38.00
2018-09-04T07:50:39.413Z,36.57
2018-09-04T07:53:08.328Z,34.67
2018-09-04T07:55:37.082Z,37.07
2018-09-04T07:58:05.912Z,37.43
2018-09-04T08:00:34.782Z,36.07
2018-09-04T08:03:03.631Z,41.23
2018-09-04T08:05:32.531Z,36.10
2018-09-04T08:08:01.390Z,40.67
2018-09-04T08:10:33.639Z,38.07
2018-09-04T08:13:07.032Z,40.20
2018-09-04T08:15:37.419Z,38.83
2018-09-04T08:18:06.302Z,40.07
2018-09-04T08:20:35.213Z,38.60
2018-09-04T08:23:04.001Z,35.63
2018-09-04T08:25:32.776Z,37.67
2018-09-04T08:28:02.021Z,39.10
2018-09-04T08:30:30.826Z,37.60
2018-09-04T08:32:59.889Z,38.47
2018-09-04T08:35:28.459Z,35.90
2018-09-04T08:37:59.724Z,37.70
2018-09-04T08:40:31.089Z,39.10
2018-09-04T08:43:01.481Z,36.93
2018-09-04T08:45:31.552Z,39.57
2018-09-04T08:48:02.348Z,38.47
2018-09-04T08:50:32.929Z,38.50
2018-09-04T08:53:01.785Z,41.90
2018-09-04T08:55:30.653Z,35.97
2018-09-04T08:57:59.419Z,36.40
2018-09-04T09:00:28.280Z,39.20
2018-09-04T09:02:57.252Z,36.40
2018-09-04T09:05:26.123Z,39.17
2018-09-04T09:07:55.009Z,37.90
2018-09-04T09:10:23.865Z,36.63
2018-09-04T09:12:52.638Z,38.53
2018-09-04T09:15:21.594Z,38.37
2018-09-04T09:17:50.372Z,37.67
2018-09-04T09:20:19.238Z,35.97
2018-09-04T09:22:48.043Z,39.33
2018-09-04T09:25:16.821Z,39.20
2018-09-04T09:27:45.781Z,34.67
2018-09-04T09:30:14.590Z,35.23
2018-09-04T09:32:43.395Z,37.63
2018-09-04T09:35:12.190Z,35.97
2018-09-04T09:37:41.028Z,35.27
2018-09-04T09:40:09.882Z,35.00
2018-09-04T09:42:38.772Z,35.80
2018-09-04T09:45:07.623Z,34.50
2018-09-04T09:47:40.943Z,33.70
2018-09-04T09:50:09.771Z,32.17
2018-09-04T09:52:38.869Z,36.90
2018-09-04T09:55:08.736Z,36.40
2018-09-04T09:57:37.623Z,34.17
2018-09-04T10:00:08.180Z,32.70
2018-09-04T10:02:42.484Z,38.17
2018-09-04T10:05:11.591Z,32.00
2018-09-04T10:07:40.464Z,29.90
2018-09-04T10:10:09.268Z,31.87
2018-09-04T10:12:38.132Z,32.30
2018-09-04T10:15:06.987Z,31.13
2018-09-04T10:17:35.924Z,30.57
2018-09-04T10:20:04.881Z,32.07
2018-09-04T10:22:33.704Z,29.93
2018-09-04T10:25:02.472Z,30.50
2018-09-04T10:27:31.287Z,31.77
2018-09-04T10:30:00.122Z,29.53
2018-09-04T10:32:28.989Z,29.40
2018-09-04T10:34:57.780Z,31.97
2018-09-04T10:37:26.640Z,31.17
2018-09-04T10:40:00.905Z,29.27
2018-09-04T10:42:30.795Z,28.50
2018-09-04T10:44:59.751Z,28.53
2018-09-04T10:47:28.733Z,27.43
2018-09-04T10:49:57.668Z,30.47
2018-09-04T10:52:26.454Z,26.80
2018-09-04T10:54:55.427Z,26.53
2018-09-04T10:57:24.196Z,29.47
2018-09-04T10:59:52.996Z,31.37
2018-09-04T11:02:21.879Z,23.87
2018-09-04T11:04:50.895Z,28.27
2018-09-04T11:07:19.715Z,23.97
2018-09-04T11:09:48.989Z,27.70
2018-09-04T11:12:17.729Z,29.10
2018-09-04T11:14:46.580Z,25.03
2018-09-04T11:17:15.387Z,23.73
2018-09-04T11:19:44.284Z,26.37
2018-09-04T11:22:13.093Z,23.63
2018-09-04T11:24:41.928Z,26.63
2018-09-04T11:27:10.728Z,24.27
2018-09-04T11:29:40.431Z,25.27
2018-09-04T11:32:09.281Z,26.83
2018-09-04T11:34:38.112Z,22.53
2018-09-04T11:37:06.980Z,28.53
2018-09-04T11:39:35.757Z,25.40
2018-09-04T11:42:04.639Z,25.30
2018-09-04T11:44:33.484Z,24.70
2018-09-04T11:47:03.275Z,23.23
2018-09-04T11:49:31.972Z,22.80
2018-09-04T11:52:00.795Z,25.50
2018-09-04T11:54:29.571Z,21.80
2018-09-04T11:56:58.520Z,24.50
2018-09-04T11:59:27.396Z,26.97
2018-09-04T12:01:57.987Z,20.00
2018-09-04T12:04:26.805Z,21.20
2018-09-04T12:06:55.740Z,21.60
2018-09-04T12:09:24.588Z,20.33
2018-09-04T12:11:53.415Z,23.13
2018-09-04T12:14:22.531Z,22.73
2018-09-04T12:16:51.347Z,23.87
2018-09-04T12:19:20.228Z,25.27
2018-09-04T12:21:49.039Z,23.03
2018-09-04T12:24:17.923Z,24.77
2018-09-04T12:26:46.745Z,22.57
2018-09-04T12:29:15.541Z,23.47
2018-09-04T12:31:44.444Z,20.43
2018-09-04T12:34:13.376Z,19.27
2018-09-04T12:36:42.219Z,19.47
2018-09-04T12:39:10.976Z,17.97
2018-09-04T12:41:40.091Z,16.97
2018-09-04T12:44:08.918Z,16.63
2018-09-04T12:46:37.861Z,18.90
2018-09-04T12:49:06.673Z,17.63
2018-09-04T12:51:35.464Z,20.20
2018-09-04T12:54:04.280Z,15.63
2018-09-04T12:56:33.093Z,18.87
2018-09-04T12:59:02.044Z,14.73
2018-09-04T13:01:30.866Z,16.63
2018-09-04T13:03:59.719Z,16.60
2018-09-04T13:06:28.524Z,14.33
2018-09-04T13:08:57.432Z,17.23
2018-09-04T13:11:26.382Z,15.70
2018-09-04T13:13:55.244Z,14.07
2018-09-04T13:16:24.013Z,14.27
2018-09-04T13:18:52.896Z,12.37
2018-09-04T13:21:22.385Z,15.13
2018-09-04T13:23:51.267Z,13.33
2018-09-04T13:26:20.018Z,13.30
2018-09-04T13:28:48.900Z,13.80
2018-09-04T13:31:17.651Z,11.33
2018-09-04T13:33:46.472Z,13.43
2018-09-04T13:36:15.391Z,12.87
2018-09-04T13:38:44.146Z,12.27
2018-09-04T13:41:12.971Z,10.00
2018-09-04T13:43:41.724Z,10.47
2018-09-04T13:46:10.624Z,10.53
2018-09-04T13:48:39.524Z,13.40
2018-09-04T13:51:08.767Z,9.70
2018-09-04T13:53:37.531Z,9.77
2018-09-04T13:56:06.461Z,13.33
2018-09-04T13:58:35.314Z,10.13
2018-09-04T14:01:04.219Z,10.53
2018-09-04T14:03:32.981Z,10.13
2018-09-04T14:06:01.812Z,12.10
2018-09-04T14:08:30.592Z,8.70
2018-09-04T14:11:00.459Z,11.00
2018-09-04T14:13:30.703Z,10.27
2018-09-04T14:16:02.409Z,13.23
2018-09-04T14:18:31.205Z,8.50
2018-09-04T14:21:00.039Z,9.13
2018-09-04T14:23:28.837Z,9.87
2018-09-04T14:25:57.691Z,10.70
2018-09-04T14:28:41.682Z,10.63
2018-09-04T14:30:56.189Z,7.90
2018-09-04T14:33:25.047Z,11.80
2018-09-04T14:35:53.931Z,8.07
2018-09-04T14:38:22.832Z,8.13
2018-09-04T14:40:51.641Z,9.00
2018-09-04T14:43:20.452Z,7.43
2018-09-04T14:45:49.293Z,7.13
2018-09-04T14:48:18.126Z,8.27
2018-09-04T14:50:47.028Z,9.40
2018-09-04T14:53:15.828Z,7.87
2018-09-04T14:55:44.584Z,13.27
2018-09-04T14:58:13.375Z,9.13
2018-09-04T15:00:42.172Z,8.80
2018-09-04T15:03:11.054Z,6.90
2018-09-04T15:05:39.823Z,7.80
2018-09-04T15:08:08.628Z,8.33
2018-09-04T15:10:37.398Z,7.00
2018-09-04T15:13:06.256Z,8.10
2018-09-04T15:15:35.183Z,6.73
2018-09-04T15:18:04.014Z,7.33
2018-09-04T15:20:32.779Z,6.50
2018-09-04T15:23:01.683Z,7.80
2018-09-04T15:25:30.483Z,10.17
2018-09-04T15:27:59.384Z,7.73
2018-09-04T15:30:28.165Z,6.07
2018-09-04T15:32:56.981Z,7.50
2018-09-04T15:35:25.816Z,8.23
2018-09-04T15:37:54.616Z,8.60
2018-09-04T15:40:23.505Z,8.70
2018-09-04T15:42:52.375Z,7.10
2018-09-04T15:45:27.188Z,7.67
2018-09-04T15:47:56.008Z,7.07
2018-09-04T15:50:24.912Z,10.97
2018-09-04T15:52:53.697Z,6.57
2018-09-04T15:55:22.601Z,6.30
2018-09-04T15:57:51.365Z,8.80
2018-09-04T16:00:20.232Z,8.03
2018-09-04T16:02:49.032Z,7.67
2018-09-04T16:05:17.874Z,8.77
2018-09-04T16:07:46.713Z,5.73
2018-09-04T16:10:15.648Z,6.57
2018-09-04T16:12:44.319Z,7.97
2018-09-04T16:15:13.275Z,5.73
2018-09-04T16:17:42.082Z,7.37
2018-09-04T16:20:10.964Z,8.00
2018-09-04T16:22:39.793Z,5.57
2018-09-04T16:25:08.766Z,6.50
2018-09-04T16:27:37.656Z,7.17
2018-09-04T16:30:06.569Z,7.03
2018-09-04T16:32:35.341Z,7.60
2018-09-04T16:35:04.156Z,8.27
2018-09-04T16:37:33.009Z,6.87
2018-09-04T16:40:02.083Z,6.83
2018-09-04T16:42:30.924Z,6.13
2018-09-04T16:44:59.712Z,5.30
2018-09-04T16:47:29.007Z,5.23
2018-09-04T16:49:58.057Z,7.03
2018-09-04T16:52:27.019Z,6.33
2018-09-04T16:54:55.897Z,5.73
2018-09-04T16:57:24.753Z,7.53
2018-09-04T16:59:53.550Z,8.47
2018-09-04T17:02:22.486Z,7.77
2018-09-04T17:04:51.356Z,6.10
2018-09-04T17:07:20.192Z,6.20
2018-09-04T17:09:48.995Z,6.33
2018-09-04T17:12:17.916Z,6.30
2018-09-04T17:14:46.708Z,8.17
2018-09-04T17:17:15.574Z,6.57
2018-09-04T17:19:44.415Z,8.60
2018-09-04T17:22:13.267Z,8.93
2018-09-04T17:24:42.042Z,6.50
2018-09-04T17:27:10.811Z,6.10
2018-09-04T17:29:39.972Z,9.73
2018-09-04T17:32:08.838Z,4.87
2018-09-04T17:34:37.657Z,7.63
2018-09-04T17:37:06.458Z,5.37
2018-09-04T17:39:35.268Z,5.70
2018-09-04T17:42:04.146Z,7.47
2018-09-04T17:44:32.956Z,7.73
2018-09-04T17:47:01.886Z,8.17
2018-09-04T17:49:30.704Z,6.23
2018-09-04T17:51:59.463Z,7.60
2018-09-04T17:54:28.583Z,7.23
2018-09-04T17:56:57.372Z,6.93
2018-09-04T17:59:26.204Z,8.50
2018-09-04T18:01:54.987Z,7.90
2018-09-04T18:04:23.803Z,7.10
2018-09-04T18:06:52.728Z,6.47
2018-09-04T18:09:21.560Z,6.43
2018-09-04T18:11:50.805Z,10.03
2018-09-04T18:14:19.649Z,5.50
2018-09-04T18:16:48.468Z,7.43
2018-09-04T18:19:18.053Z,4.83
2018-09-04T18:21:47.207Z,5.50
2018-09-04T18:24:16.066Z,5.97
2018-09-04T18:26:44.930Z,7.03
2018-09-04T18:29:13.996Z,6.83
2018-09-04T18:31:42.844Z,10.10
2018-09-04T18:34:11.716Z,5.30
2018-09-04T18:36:40.567Z,5.20
2018-09-04T18:39:09.637Z,6.10
2018-09-04T18:41:38.488Z,5.93
2018-09-04T18:44:07.333Z,5.87
2018-09-04T18:46:36.353Z,7.23
2018-09-04T18:49:05.230Z,7.33
2018-09-04T18:51:34.021Z,5.63
2018-09-04T18:54:02.860Z,4.90
2018-09-04T18:56:31.810Z,6.97
2018-09-04T18:59:00.858Z,7.77
2018-09-04T19:01:29.963Z,5.93
2018-09-04T19:03:58.845Z,7.13
2018-09-04T19:06:27.645Z,5.77
2018-09-04T19:08:56.499Z,8.53
2018-09-04T19:11:25.302Z,5.37
2018-09-04T19:13:54.230Z,7.23
2018-09-04T19:16:23.269Z,4.30
2018-09-04T19:18:52.108Z,4.83
2018-09-04T19:21:21.030Z,6.90
2018-09-04T19:23:49.854Z,9.57
2018-09-04T19:26:18.688Z,4.70
2018-09-04T19:28:47.536Z,5.47
2018-09-04T19:31:16.323Z,7.40
2018-09-04T19:33:45.159Z,4.87
2018-09-04T19:36:14.251Z,6.57
2018-09-04T19:38:43.055Z,5.00
2018-09-04T19:41:12.499Z,6.97
2018-09-04T19:43:41.279Z,5.87
2018-09-04T19:46:10.195Z,6.43
2018-09-04T19:48:39.012Z,5.57
2018-09-04T19:51:07.803Z,10.80
2018-09-04T19:53:36.978Z,7.00
2018-09-04T19:56:05.959Z,6.30
2018-09-04T19:58:34.767Z,6.20
2018-09-04T20:01:03.626Z,4.50
2018-09-04T20:03:32.428Z,5.47
2018-09-04T20:06:01.277Z,6.33
2018-09-04T20:08:30.079Z,5.17
2018-09-04T20:10:58.915Z,6.17
2018-09-04T20:13:27.835Z,7.13
2018-09-04T20:15:56.656Z,6.60
2018-09-04T20:18:25.455Z,4.93
2018-09-04T20:20:54.259Z,6.20
2018-09-04T20:23:23.101Z,5.47
2018-09-04T20:25:51.866Z,5.20
2018-09-04T20:28:20.706Z,5.70
2018-09-04T20:30:49.495Z,4.93
2018-09-04T20:33:18.358Z,6.73
2018-09-04T20:35:47.186Z,7.73
2018-09-04T20:38:16.013Z,6.23
2018-09-04T20:40:45.207Z,5.87
2018-09-04T20:43:14.080Z,5.63
2018-09-04T20:45:48.065Z,5.40
2018-09-04T20:48:16.920Z,4.60
2018-09-04T20:50:45.739Z,5.40
2018-09-04T20:53:14.636Z,7.57
2018-09-04T20:55:43.455Z,8.27
2018-09-04T20:58:29.476Z,5.57
2018-09-04T21:01:15.215Z,4.87
2018-09-04T21:04:01.251Z,7.50
2018-09-04T21:06:42.848Z,7.10
2018-09-04T21:10:23.828Z,6.53
2018-09-04T21:12:52.677Z,5.60
2018-09-04T21:15:21.488Z,6.00
2018-09-04T21:17:50.913Z,6.80
2018-09-04T21:20:19.780Z,6.70
2018-09-04T21:22:48.700Z,6.57
2018-09-04T21:25:17.814Z,6.60
2018-09-04T21:27:46.588Z,8.47
2018-09-04T21:30:15.381Z,6.87
2018-09-04T21:32:44.572Z,10.03
2018-09-04T21:35:13.342Z,7.77
2018-09-04T21:37:42.312Z,5.93
2018-09-04T21:40:11.352Z,6.63
2018-09-04T21:42:40.132Z,6.93
2018-09-04T21:45:08.996Z,5.83
2018-09-04T21:47:38.014Z,7.07
2018-09-04T21:50:07.642Z,6.77
2018-09-04T21:52:36.431Z,10.67
2018-09-04T21:55:06.078Z,8.07
2018-09-04T21:57:34.859Z,9.47
2018-09-04T22:00:04.570Z,6.20
2018-09-04T22:02:33.519Z,6.90
2018-09-04T22:05:02.413Z,6.17
2018-09-04T22:07:31.228Z,8.87
2018-09-04T22:10:00.512Z,7.77
2018-09-04T22:12:29.860Z,7.23
2018-09-04T22:14:58.707Z,8.57
2018-09-04T22:17:27.910Z,11.33
2018-09-04T22:19:56.755Z,9.37
2018-09-04T22:22:25.556Z,12.77
2018-09-04T22:24:54.575Z,6.80
2018-09-04T22:27:23.396Z,8.27
2018-09-04T22:29:52.229Z,8.00
2018-09-04T22:32:21.564Z,9.20
2018-09-04T22:34:50.404Z,6.23
2018-09-04T22:37:19.191Z,8.53
2018-09-04T22:39:48.347Z,6.93
2018-09-04T22:42:17.154Z,10.40
2018-09-04T22:44:45.959Z,7.97
2018-09-04T22:47:15.117Z,10.00
2018-09-04T22:49:49.447Z,10.10
2018-09-04T22:52:23.043Z,9.00
2018-09-04T22:54:55.914Z,8.50
2018-09-04T22:57:25.232Z,12.43
2018-09-04T22:59:54.023Z,10.00
2018-09-04T23:02:22.874Z,12.23
2018-09-04T23:04:51.821Z,9.23
2018-09-04T23:07:20.785Z,10.17
2018-09-04T23:09:49.606Z,10.30
2018-09-04T23:12:18.791Z,10.87
2018-09-04T23:14:47.654Z,13.67
2018-09-04T23:17:16.420Z,12.27
2018-09-04T23:19:45.561Z,10.93
2018-09-04T23:22:14.383Z,9.97
2018-09-04T23:24:43.168Z,11.00
2018-09-04T23:27:12.354Z,7.90
2018-09-04T23:29:41.446Z,9.53
2018-09-04T23:32:10.209Z,9.33
2018-09-04T23:34:39.943Z,9.53
2018-09-04T23:37:08.735Z,10.50
2018-09-04T23:39:38.180Z,14.53
2018-09-04T23:42:07.294Z,9.73
2018-09-04T23:44:36.103Z,10.37
2018-09-04T23:47:05.283Z,9.67
2018-09-04T23:49:34.590Z,11.43
2018-09-04T23:52:03.495Z,9.90
2018-09-04T23:54:32.380Z,8.77
2018-09-04T23:57:01.312Z,9.87
2018-09-04T23:59:30.087Z,9.70
